sensor_id;sensor_type;location;lat;lon;timestamp;temperature;humidity
13980;DHT22;73871;49.900;8.594;2024-02-21T00:00:12;8.70;99.90
13980;DHT22;73871;49.900;8.594;2024-02-21T00:02:39;8.70;99.90
13980;DHT22;73871;49.900;8.594;2024-02-21T00:05:06;8.60;99.90
13980;DHT22;73871;49.900;8.594;2024-02-21T00:07:34;8.60;99.90
13980;DHT22;73871;49.900;8.594;2024-02-21T00:10:00;8.60;99.90
13980;DHT22;73871;49.900;8.594;2024-02-21T00:12:27;8.60;99.90
13980;DHT22;73871;49.900;8.594;2024-02-21T00:14:54;8.60;99.90
13980;DHT22;73871;49.900;8.594;2024-02-21T00:17:20;8.60;99.90
13980;DHT22;73871;49.900;8.594;2024-02-21T00:19:47;8.60;99.90
13980;DHT22;73871;49.900;8.594;2024-02-21T00:22:14;8.60;99.90
13980;DHT22;73871;49.900;8.594;2024-02-21T00:24:41;8.50;99.90
13980;DHT22;73871;49.900;8.594;2024-02-21T00:27:08;8.50;99.90
13980;DHT22;73871;49.900;8.594;2024-02-21T00:29:34;8.60;99.90
13980;DHT22;73871;49.900;8.594;2024-02-21T00:32:01;8.60;99.90
13980;DHT22;73871;49.900;8.594;2024-02-21T00:34:28;8.60;99.90
13980;DHT22;73871;49.900;8.594;2024-02-21T00:36:55;8.50;99.90
13980;DHT22;73871;49.900;8.594;2024-02-21T00:39:22;8.50;99.90
13980;DHT22;73871;49.900;8.594;2024-02-21T00:41:48;8.50;99.90
13980;DHT22;73871;49.900;8.594;2024-02-21T00:44:16;8.50;99.90
13980;DHT22;73871;49.900;8.594;2024-02-21T00:46:42;8.60;99.90
13980;DHT22;73871;49.900;8.594;2024-02-21T00:49:09;8.60;99.90
13980;DHT22;73871;49.900;8.594;2024-02-21T00:51:36;8.60;99.90
13980;DHT22;73871;49.900;8.594;2024-02-21T00:54:02;8.60;99.90
13980;DHT22;73871;49.900;8.594;2024-02-21T00:56:29;8.60;99.90
13980;DHT22;73871;49.900;8.594;2024-02-21T00:58:57;8.50;99.90
13980;DHT22;73871;49.900;8.594;2024-02-21T01:01:25;8.40;99.90
13980;DHT22;73871;49.900;8.594;2024-02-21T01:03:52;8.40;99.90
13980;DHT22;73871;49.900;8.594;2024-02-21T01:06:20;8.40;99.90
13980;DHT22;73871;49.900;8.594;2024-02-21T01:08:47;8.40;99.90
13980;DHT22;73871;49.900;8.594;2024-02-21T01:11:15;8.40;99.90
13980;DHT22;73871;49.900;8.594;2024-02-21T01:13:42;8.30;99.90
13980;DHT22;73871;49.900;8.594;2024-02-21T01:16:09;8.30;99.90
13980;DHT22;73871;49.900;8.594;2024-02-21T01:18:39;8.30;99.90
13980;DHT22;73871;49.900;8.594;2024-02-21T01:21:07;8.20;99.90
13980;DHT22;73871;49.900;8.594;2024-02-21T01:23:34;8.30;99.90
13980;DHT22;73871;49.900;8.594;2024-02-21T01:26:03;8.30;99.90
13980;DHT22;73871;49.900;8.594;2024-02-21T01:28:30;8.40;99.90
13980;DHT22;73871;49.900;8.594;2024-02-21T01:31:00;8.40;99.90
13980;DHT22;73871;49.900;8.594;2024-02-21T01:33:26;8.40;99.90
13980;DHT22;73871;49.900;8.594;2024-02-21T01:35:53;8.30;99.90
13980;DHT22;73871;49.900;8.594;2024-02-21T01:38:20;8.30;99.90
13980;DHT22;73871;49.900;8.594;2024-02-21T01:40:47;8.30;99.90
13980;DHT22;73871;49.900;8.594;2024-02-21T01:43:19;8.30;99.90
13980;DHT22;73871;49.900;8.594;2024-02-21T01:45:50;8.30;99.90
13980;DHT22;73871;49.900;8.594;2024-02-21T01:48:20;8.30;99.90
13980;DHT22;73871;49.900;8.594;2024-02-21T01:50:49;8.30;99.90
13980;DHT22;73871;49.900;8.594;2024-02-21T01:53:29;8.20;99.90
13980;DHT22;73871;49.900;8.594;2024-02-21T01:55:56;8.20;99.90
13980;DHT22;73871;49.900;8.594;2024-02-21T01:58:24;8.20;99.90
13980;DHT22;73871;49.900;8.594;2024-02-21T02:00:51;8.20;99.90
13980;DHT22;73871;49.900;8.594;2024-02-21T02:03:17;8.20;99.90
13980;DHT22;73871;49.900;8.594;2024-02-21T02:05:45;8.10;99.90
13980;DHT22;73871;49.900;8.594;2024-02-21T02:08:18;8.00;99.90
13980;DHT22;73871;49.900;8.594;2024-02-21T02:10:45;8.00;99.90
13980;DHT22;73871;49.900;8.594;2024-02-21T02:13:12;8.00;99.90
13980;DHT22;73871;49.900;8.594;2024-02-21T02:15:47;8.00;99.90
13980;DHT22;73871;49.900;8.594;2024-02-21T02:18:16;8.00;99.90
13980;DHT22;73871;49.900;8.594;2024-02-21T02:20:44;7.90;99.90
13980;DHT22;73871;49.900;8.594;2024-02-21T02:23:31;7.90;99.90
13980;DHT22;73871;49.900;8.594;2024-02-21T02:25:58;7.90;99.90
13980;DHT22;73871;49.900;8.594;2024-02-21T02:28:25;7.90;99.90
13980;DHT22;73871;49.900;8.594;2024-02-21T02:30:52;7.80;99.90
13980;DHT22;73871;49.900;8.594;2024-02-21T02:33:19;7.80;99.90
13980;DHT22;73871;49.900;8.594;2024-02-21T02:35:46;7.90;99.90
13980;DHT22;73871;49.900;8.594;2024-02-21T02:38:13;7.90;99.90
13980;DHT22;73871;49.900;8.594;2024-02-21T02:40:41;7.90;99.90
13980;DHT22;73871;49.900;8.594;2024-02-21T02:43:09;7.90;99.90
13980;DHT22;73871;49.900;8.594;2024-02-21T02:45:35;7.90;99.90
13980;DHT22;73871;49.900;8.594;2024-02-21T02:48:02;7.80;99.90
13980;DHT22;73871;49.900;8.594;2024-02-21T02:50:30;7.80;99.90
13980;DHT22;73871;49.900;8.594;2024-02-21T02:52:57;7.80;99.90
13980;DHT22;73871;49.900;8.594;2024-02-21T02:55:23;7.70;99.90
13980;DHT22;73871;49.900;8.594;2024-02-21T02:57:50;7.70;99.90
13980;DHT22;73871;49.900;8.594;2024-02-21T03:00:17;7.70;99.90
13980;DHT22;73871;49.900;8.594;2024-02-21T03:02:45;7.70;99.90
13980;DHT22;73871;49.900;8.594;2024-02-21T03:05:18;7.70;99.90
13980;DHT22;73871;49.900;8.594;2024-02-21T03:07:46;7.60;99.90
13980;DHT22;73871;49.900;8.594;2024-02-21T03:10:14;7.60;99.90
13980;DHT22;73871;49.900;8.594;2024-02-21T03:12:43;7.60;99.90
13980;DHT22;73871;49.900;8.594;2024-02-21T03:15:10;7.60;99.90
13980;DHT22;73871;49.900;8.594;2024-02-21T03:17:36;7.60;99.90
13980;DHT22;73871;49.900;8.594;2024-02-21T03:20:03;7.60;99.90
13980;DHT22;73871;49.900;8.594;2024-02-21T03:22:39;7.60;99.90
13980;DHT22;73871;49.900;8.594;2024-02-21T03:25:07;7.60;99.90
13980;DHT22;73871;49.900;8.594;2024-02-21T03:27:34;7.60;99.90
13980;DHT22;73871;49.900;8.594;2024-02-21T03:30:01;7.60;99.90
13980;DHT22;73871;49.900;8.594;2024-02-21T03:32:28;7.50;99.90
13980;DHT22;73871;49.900;8.594;2024-02-21T03:34:56;7.50;99.90
13980;DHT22;73871;49.900;8.594;2024-02-21T03:37:23;7.40;99.90
13980;DHT22;73871;49.900;8.594;2024-02-21T03:39:50;7.40;99.90
13980;DHT22;73871;49.900;8.594;2024-02-21T03:42:16;7.40;99.90
13980;DHT22;73871;49.900;8.594;2024-02-21T03:44:43;7.40;99.90
13980;DHT22;73871;49.900;8.594;2024-02-21T03:47:10;7.40;99.90
13980;DHT22;73871;49.900;8.594;2024-02-21T03:49:38;7.40;99.90
13980;DHT22;73871;49.900;8.594;2024-02-21T03:52:05;7.30;99.90
13980;DHT22;73871;49.900;8.594;2024-02-21T03:54:32;7.30;99.90
13980;DHT22;73871;49.900;8.594;2024-02-21T03:56:59;7.30;99.90
13980;DHT22;73871;49.900;8.594;2024-02-21T03:59:25;7.40;99.90
13980;DHT22;73871;49.900;8.594;2024-02-21T04:01:52;7.50;99.90
13980;DHT22;73871;49.900;8.594;2024-02-21T04:04:20;7.50;99.90
13980;DHT22;73871;49.900;8.594;2024-02-21T04:06:50;7.60;99.90
13980;DHT22;73871;49.900;8.594;2024-02-21T04:09:18;7.60;99.90
13980;DHT22;73871;49.900;8.594;2024-02-21T04:11:45;7.70;99.90
13980;DHT22;73871;49.900;8.594;2024-02-21T04:14:12;7.70;99.90
13980;DHT22;73871;49.900;8.594;2024-02-21T04:16:39;7.80;99.90
13980;DHT22;73871;49.900;8.594;2024-02-21T04:19:07;7.70;99.90
13980;DHT22;73871;49.900;8.594;2024-02-21T04:21:35;7.70;99.90
13980;DHT22;73871;49.900;8.594;2024-02-21T04:24:01;7.80;99.90
13980;DHT22;73871;49.900;8.594;2024-02-21T04:26:30;7.80;99.90
13980;DHT22;73871;49.900;8.594;2024-02-21T04:28:56;7.70;99.90
13980;DHT22;73871;49.900;8.594;2024-02-21T04:31:23;7.70;99.90
13980;DHT22;73871;49.900;8.594;2024-02-21T04:33:51;7.70;99.90
13980;DHT22;73871;49.900;8.594;2024-02-21T04:36:17;7.60;99.90
13980;DHT22;73871;49.900;8.594;2024-02-21T04:38:45;7.60;99.90
13980;DHT22;73871;49.900;8.594;2024-02-21T04:41:11;7.70;99.90
13980;DHT22;73871;49.900;8.594;2024-02-21T04:43:38;7.60;99.90
13980;DHT22;73871;49.900;8.594;2024-02-21T04:46:06;7.60;99.90
13980;DHT22;73871;49.900;8.594;2024-02-21T04:48:32;7.60;99.90
13980;DHT22;73871;49.900;8.594;2024-02-21T04:50:59;7.60;99.90
13980;DHT22;73871;49.900;8.594;2024-02-21T04:53:26;7.50;99.90
13980;DHT22;73871;49.900;8.594;2024-02-21T04:55:52;7.50;99.90
13980;DHT22;73871;49.900;8.594;2024-02-21T04:58:19;7.40;99.90
13980;DHT22;73871;49.900;8.594;2024-02-21T05:00:46;7.40;99.90
13980;DHT22;73871;49.900;8.594;2024-02-21T05:03:13;7.40;99.90
13980;DHT22;73871;49.900;8.594;2024-02-21T05:05:39;7.40;99.90
13980;DHT22;73871;49.900;8.594;2024-02-21T05:08:06;7.40;99.90
13980;DHT22;73871;49.900;8.594;2024-02-21T05:10:33;7.30;99.90
13980;DHT22;73871;49.900;8.594;2024-02-21T05:13:00;7.30;99.90
13980;DHT22;73871;49.900;8.594;2024-02-21T05:15:27;7.20;99.90
13980;DHT22;73871;49.900;8.594;2024-02-21T05:17:54;7.20;99.90
13980;DHT22;73871;49.900;8.594;2024-02-21T05:20:21;7.20;99.90
13980;DHT22;73871;49.900;8.594;2024-02-21T05:22:48;7.10;99.90
13980;DHT22;73871;49.900;8.594;2024-02-21T05:25:15;7.10;99.90
13980;DHT22;73871;49.900;8.594;2024-02-21T05:27:42;7.10;99.90
13980;DHT22;73871;49.900;8.594;2024-02-21T05:30:09;7.10;99.90
13980;DHT22;73871;49.900;8.594;2024-02-21T05:32:36;7.10;99.90
13980;DHT22;73871;49.900;8.594;2024-02-21T05:35:03;7.20;99.90
13980;DHT22;73871;49.900;8.594;2024-02-21T05:37:30;7.30;99.90
13980;DHT22;73871;49.900;8.594;2024-02-21T05:39:56;7.20;99.90
13980;DHT22;73871;49.900;8.594;2024-02-21T05:42:23;7.30;99.90
13980;DHT22;73871;49.900;8.594;2024-02-21T05:44:50;7.30;99.90
13980;DHT22;73871;49.900;8.594;2024-02-21T05:47:16;7.30;99.90
13980;DHT22;73871;49.900;8.594;2024-02-21T05:49:43;7.40;99.90
13980;DHT22;73871;49.900;8.594;2024-02-21T05:52:10;7.40;99.90
13980;DHT22;73871;49.900;8.594;2024-02-21T05:54:40;7.40;99.90
13980;DHT22;73871;49.900;8.594;2024-02-21T05:57:07;7.40;99.90
13980;DHT22;73871;49.900;8.594;2024-02-21T05:59:34;7.40;99.90
13980;DHT22;73871;49.900;8.594;2024-02-21T06:02:03;7.40;99.90
13980;DHT22;73871;49.900;8.594;2024-02-21T06:04:30;7.40;99.90
13980;DHT22;73871;49.900;8.594;2024-02-21T06:06:57;7.40;99.90
13980;DHT22;73871;49.900;8.594;2024-02-21T06:09:24;7.50;99.90
13980;DHT22;73871;49.900;8.594;2024-02-21T06:11:51;7.50;99.90
13980;DHT22;73871;49.900;8.594;2024-02-21T06:14:18;7.50;99.90
13980;DHT22;73871;49.900;8.594;2024-02-21T06:16:45;7.50;99.90
13980;DHT22;73871;49.900;8.594;2024-02-21T06:19:11;7.60;99.90
13980;DHT22;73871;49.900;8.594;2024-02-21T06:21:38;7.50;99.90
13980;DHT22;73871;49.900;8.594;2024-02-21T06:24:05;7.50;99.90
13980;DHT22;73871;49.900;8.594;2024-02-21T06:26:32;7.50;99.90
13980;DHT22;73871;49.900;8.594;2024-02-21T06:28:59;7.50;99.90
13980;DHT22;73871;49.900;8.594;2024-02-21T06:31:29;7.40;99.90
13980;DHT22;73871;49.900;8.594;2024-02-21T06:33:56;7.30;99.90
13980;DHT22;73871;49.900;8.594;2024-02-21T06:36:23;7.30;99.90
13980;DHT22;73871;49.900;8.594;2024-02-21T06:38:50;7.30;99.90
13980;DHT22;73871;49.900;8.594;2024-02-21T06:41:17;7.30;99.90
13980;DHT22;73871;49.900;8.594;2024-02-21T06:43:46;7.30;99.90
13980;DHT22;73871;49.900;8.594;2024-02-21T06:46:26;7.30;99.90
13980;DHT22;73871;49.900;8.594;2024-02-21T06:48:55;7.30;99.90
13980;DHT22;73871;49.900;8.594;2024-02-21T06:51:27;7.30;99.90
13980;DHT22;73871;49.900;8.594;2024-02-21T06:53:54;7.30;99.90
13980;DHT22;73871;49.900;8.594;2024-02-21T06:56:23;7.20;99.90
13980;DHT22;73871;49.900;8.594;2024-02-21T06:58:53;7.20;99.90
13980;DHT22;73871;49.900;8.594;2024-02-21T07:01:20;7.20;99.90
13980;DHT22;73871;49.900;8.594;2024-02-21T07:03:47;7.30;99.90
13980;DHT22;73871;49.900;8.594;2024-02-21T07:06:14;7.30;99.90
13980;DHT22;73871;49.900;8.594;2024-02-21T07:08:41;7.30;99.90
13980;DHT22;73871;49.900;8.594;2024-02-21T07:11:07;7.40;99.90
13980;DHT22;73871;49.900;8.594;2024-02-21T07:13:34;7.60;99.90
13980;DHT22;73871;49.900;8.594;2024-02-21T07:16:01;7.60;99.90
13980;DHT22;73871;49.900;8.594;2024-02-21T07:18:28;7.70;99.90
13980;DHT22;73871;49.900;8.594;2024-02-21T07:20:54;7.70;99.90
13980;DHT22;73871;49.900;8.594;2024-02-21T07:23:22;7.90;99.90
13980;DHT22;73871;49.900;8.594;2024-02-21T07:25:48;8.00;99.90
13980;DHT22;73871;49.900;8.594;2024-02-21T07:28:15;8.00;99.90
13980;DHT22;73871;49.900;8.594;2024-02-21T07:30:43;8.10;99.90
13980;DHT22;73871;49.900;8.594;2024-02-21T07:33:10;8.20;99.90
13980;DHT22;73871;49.900;8.594;2024-02-21T07:35:37;8.30;99.90
13980;DHT22;73871;49.900;8.594;2024-02-21T07:38:04;8.40;99.90
13980;DHT22;73871;49.900;8.594;2024-02-21T07:40:32;8.60;99.90
13980;DHT22;73871;49.900;8.594;2024-02-21T07:42:58;8.50;99.90
13980;DHT22;73871;49.900;8.594;2024-02-21T07:45:25;8.50;99.90
13980;DHT22;73871;49.900;8.594;2024-02-21T07:47:53;8.50;99.90
13980;DHT22;73871;49.900;8.594;2024-02-21T07:50:19;8.60;99.90
13980;DHT22;73871;49.900;8.594;2024-02-21T07:52:46;8.80;99.90
13980;DHT22;73871;49.900;8.594;2024-02-21T07:55:13;8.70;99.90
13980;DHT22;73871;49.900;8.594;2024-02-21T07:57:41;8.70;99.90
13980;DHT22;73871;49.900;8.594;2024-02-21T08:00:07;8.80;99.90
13980;DHT22;73871;49.900;8.594;2024-02-21T08:02:41;8.80;99.90
13980;DHT22;73871;49.900;8.594;2024-02-21T08:05:10;8.70;99.90
13980;DHT22;73871;49.900;8.594;2024-02-21T08:07:39;8.70;99.90
13980;DHT22;73871;49.900;8.594;2024-02-21T08:10:06;8.80;99.90
13980;DHT22;73871;49.900;8.594;2024-02-21T08:12:36;9.00;99.90
13980;DHT22;73871;49.900;8.594;2024-02-21T08:15:03;9.00;99.90
13980;DHT22;73871;49.900;8.594;2024-02-21T08:17:30;8.90;99.90
13980;DHT22;73871;49.900;8.594;2024-02-21T08:19:57;8.90;99.90
13980;DHT22;73871;49.900;8.594;2024-02-21T08:22:24;8.90;99.90
13980;DHT22;73871;49.900;8.594;2024-02-21T08:24:52;8.90;99.90
13980;DHT22;73871;49.900;8.594;2024-02-21T08:27:19;9.00;99.90
13980;DHT22;73871;49.900;8.594;2024-02-21T08:29:46;8.90;99.90
13980;DHT22;73871;49.900;8.594;2024-02-21T08:32:13;8.90;99.90
13980;DHT22;73871;49.900;8.594;2024-02-21T08:34:40;9.00;99.90
13980;DHT22;73871;49.900;8.594;2024-02-21T08:37:06;9.10;99.90
13980;DHT22;73871;49.900;8.594;2024-02-21T08:39:34;9.10;99.90
13980;DHT22;73871;49.900;8.594;2024-02-21T08:42:01;9.20;99.90
13980;DHT22;73871;49.900;8.594;2024-02-21T08:44:28;9.10;99.90
13980;DHT22;73871;49.900;8.594;2024-02-21T08:46:55;9.20;99.90
13980;DHT22;73871;49.900;8.594;2024-02-21T08:49:22;9.30;99.90
13980;DHT22;73871;49.900;8.594;2024-02-21T08:51:49;9.40;99.90
13980;DHT22;73871;49.900;8.594;2024-02-21T08:54:16;9.50;99.90
13980;DHT22;73871;49.900;8.594;2024-02-21T08:56:43;9.70;99.90
13980;DHT22;73871;49.900;8.594;2024-02-21T08:59:10;10.40;99.90
13980;DHT22;73871;49.900;8.594;2024-02-21T09:01:37;11.00;99.90
13980;DHT22;73871;49.900;8.594;2024-02-21T09:04:05;11.50;99.90
13980;DHT22;73871;49.900;8.594;2024-02-21T09:06:32;11.70;99.90
13980;DHT22;73871;49.900;8.594;2024-02-21T09:09:00;11.40;99.90
13980;DHT22;73871;49.900;8.594;2024-02-21T09:11:27;11.60;99.90
13980;DHT22;73871;49.900;8.594;2024-02-21T09:13:55;12.30;99.90
13980;DHT22;73871;49.900;8.594;2024-02-21T09:16:22;12.10;99.90
13980;DHT22;73871;49.900;8.594;2024-02-21T09:18:50;11.50;99.90
13980;DHT22;73871;49.900;8.594;2024-02-21T09:21:16;10.90;99.90
13980;DHT22;73871;49.900;8.594;2024-02-21T09:23:43;10.90;99.90
13980;DHT22;73871;49.900;8.594;2024-02-21T09:26:10;10.90;99.90
13980;DHT22;73871;49.900;8.594;2024-02-21T09:28:40;11.10;99.90
13980;DHT22;73871;49.900;8.594;2024-02-21T09:31:07;11.50;99.90
13980;DHT22;73871;49.900;8.594;2024-02-21T09:33:34;12.00;99.90
13980;DHT22;73871;49.900;8.594;2024-02-21T09:36:01;11.70;99.90
13980;DHT22;73871;49.900;8.594;2024-02-21T09:38:28;12.40;99.90
13980;DHT22;73871;49.900;8.594;2024-02-21T09:41:15;12.70;99.90
13980;DHT22;73871;49.900;8.594;2024-02-21T09:43:50;12.80;99.90
13980;DHT22;73871;49.900;8.594;2024-02-21T09:46:18;13.00;99.90
13980;DHT22;73871;49.900;8.594;2024-02-21T09:51:25;13.20;99.90
13980;DHT22;73871;49.900;8.594;2024-02-21T09:53:56;12.60;99.90
13980;DHT22;73871;49.900;8.594;2024-02-21T09:56:37;12.90;99.90
13980;DHT22;73871;49.900;8.594;2024-02-21T09:59:04;13.90;99.90
13980;DHT22;73871;49.900;8.594;2024-02-21T10:01:31;14.20;99.90
13980;DHT22;73871;49.900;8.594;2024-02-21T10:04:01;14.70;99.90
13980;DHT22;73871;49.900;8.594;2024-02-21T10:06:30;14.60;99.90
13980;DHT22;73871;49.900;8.594;2024-02-21T10:08:56;13.10;99.90
13980;DHT22;73871;49.900;8.594;2024-02-21T10:11:24;12.10;99.90
13980;DHT22;73871;49.900;8.594;2024-02-21T10:14:02;11.70;99.90
13980;DHT22;73871;49.900;8.594;2024-02-21T10:16:29;11.60;99.90
13980;DHT22;73871;49.900;8.594;2024-02-21T10:18:56;11.20;99.90
13980;DHT22;73871;49.900;8.594;2024-02-21T10:21:23;10.90;99.90
13980;DHT22;73871;49.900;8.594;2024-02-21T10:23:50;11.00;99.90
13980;DHT22;73871;49.900;8.594;2024-02-21T10:26:19;11.10;99.90
13980;DHT22;73871;49.900;8.594;2024-02-21T10:28:47;11.20;99.90
13980;DHT22;73871;49.900;8.594;2024-02-21T10:31:23;11.00;99.90
13980;DHT22;73871;49.900;8.594;2024-02-21T10:33:58;10.70;99.90
13980;DHT22;73871;49.900;8.594;2024-02-21T10:36:25;10.80;99.90
13980;DHT22;73871;49.900;8.594;2024-02-21T10:38:53;10.90;99.90
13980;DHT22;73871;49.900;8.594;2024-02-21T10:41:21;11.10;99.90
13980;DHT22;73871;49.900;8.594;2024-02-21T10:43:53;11.20;99.90
13980;DHT22;73871;49.900;8.594;2024-02-21T10:46:22;11.10;99.90
13980;DHT22;73871;49.900;8.594;2024-02-21T10:49:07;11.00;99.90
13980;DHT22;73871;49.900;8.594;2024-02-21T10:51:42;11.00;99.90
13980;DHT22;73871;49.900;8.594;2024-02-21T10:54:25;11.20;99.90
13980;DHT22;73871;49.900;8.594;2024-02-21T10:56:57;11.10;99.90
13980;DHT22;73871;49.900;8.594;2024-02-21T10:59:25;11.20;99.90
13980;DHT22;73871;49.900;8.594;2024-02-21T11:01:53;11.10;99.90
13980;DHT22;73871;49.900;8.594;2024-02-21T11:04:25;11.30;99.90
13980;DHT22;73871;49.900;8.594;2024-02-21T11:06:53;11.40;99.90
13980;DHT22;73871;49.900;8.594;2024-02-21T11:09:32;11.40;99.90
13980;DHT22;73871;49.900;8.594;2024-02-21T11:12:06;11.60;99.90
13980;DHT22;73871;49.900;8.594;2024-02-21T11:14:34;11.80;99.90
13980;DHT22;73871;49.900;8.594;2024-02-21T11:17:19;11.80;99.90
13980;DHT22;73871;49.900;8.594;2024-02-21T11:19:48;11.70;99.90
13980;DHT22;73871;49.900;8.594;2024-02-21T11:22:19;11.90;99.90
13980;DHT22;73871;49.900;8.594;2024-02-21T11:24:48;12.00;99.90
13980;DHT22;73871;49.900;8.594;2024-02-21T11:27:15;12.00;99.90
13980;DHT22;73871;49.900;8.594;2024-02-21T11:29:48;12.00;99.90
13980;DHT22;73871;49.900;8.594;2024-02-21T11:32:19;12.10;99.90
13980;DHT22;73871;49.900;8.594;2024-02-21T11:35:03;12.00;99.90
13980;DHT22;73871;49.900;8.594;2024-02-21T11:37:35;12.10;99.90
13980;DHT22;73871;49.900;8.594;2024-02-21T11:40:06;12.20;99.90
13980;DHT22;73871;49.900;8.594;2024-02-21T11:42:36;12.30;99.90
13980;DHT22;73871;49.900;8.594;2024-02-21T11:45:03;12.10;99.90
13980;DHT22;73871;49.900;8.594;2024-02-21T11:47:30;11.80;99.90
13980;DHT22;73871;49.900;8.594;2024-02-21T11:49:57;11.90;99.90
13980;DHT22;73871;49.900;8.594;2024-02-21T11:52:25;12.10;99.90
13980;DHT22;73871;49.900;8.594;2024-02-21T11:54:53;11.80;99.90
13980;DHT22;73871;49.900;8.594;2024-02-21T11:57:21;11.80;99.90
13980;DHT22;73871;49.900;8.594;2024-02-21T11:59:48;12.10;99.90
13980;DHT22;73871;49.900;8.594;2024-02-21T12:02:18;12.10;99.90
13980;DHT22;73871;49.900;8.594;2024-02-21T12:04:46;12.10;99.90
13980;DHT22;73871;49.900;8.594;2024-02-21T12:07:14;12.10;99.90
13980;DHT22;73871;49.900;8.594;2024-02-21T12:09:41;12.00;99.90
13980;DHT22;73871;49.900;8.594;2024-02-21T12:12:08;12.00;99.90
13980;DHT22;73871;49.900;8.594;2024-02-21T12:14:36;12.10;99.90
13980;DHT22;73871;49.900;8.594;2024-02-21T12:17:03;12.20;99.90
13980;DHT22;73871;49.900;8.594;2024-02-21T12:19:34;12.20;99.90
13980;DHT22;73871;49.900;8.594;2024-02-21T12:22:01;12.40;99.90
13980;DHT22;73871;49.900;8.594;2024-02-21T12:24:32;12.50;99.90
13980;DHT22;73871;49.900;8.594;2024-02-21T12:26:59;12.50;99.90
13980;DHT22;73871;49.900;8.594;2024-02-21T12:29:26;12.40;99.90
13980;DHT22;73871;49.900;8.594;2024-02-21T12:31:54;12.30;99.90
13980;DHT22;73871;49.900;8.594;2024-02-21T12:34:23;12.50;99.90
13980;DHT22;73871;49.900;8.594;2024-02-21T12:37:04;12.80;99.90
13980;DHT22;73871;49.900;8.594;2024-02-21T12:39:31;13.20;99.90
13980;DHT22;73871;49.900;8.594;2024-02-21T12:41:59;12.90;99.90
13980;DHT22;73871;49.900;8.594;2024-02-21T12:44:25;12.50;99.90
13980;DHT22;73871;49.900;8.594;2024-02-21T12:46:53;12.00;99.90
13980;DHT22;73871;49.900;8.594;2024-02-21T12:49:22;11.90;99.90
13980;DHT22;73871;49.900;8.594;2024-02-21T12:51:49;11.90;99.90
13980;DHT22;73871;49.900;8.594;2024-02-21T12:54:16;12.00;99.90
13980;DHT22;73871;49.900;8.594;2024-02-21T12:56:42;11.90;99.90
13980;DHT22;73871;49.900;8.594;2024-02-21T12:59:09;12.10;99.90
13980;DHT22;73871;49.900;8.594;2024-02-21T13:01:36;12.30;99.90
13980;DHT22;73871;49.900;8.594;2024-02-21T13:04:04;12.50;99.90
13980;DHT22;73871;49.900;8.594;2024-02-21T13:06:31;12.60;99.90
13980;DHT22;73871;49.900;8.594;2024-02-21T13:08:58;12.60;99.90
13980;DHT22;73871;49.900;8.594;2024-02-21T13:11:26;12.40;99.90
13980;DHT22;73871;49.900;8.594;2024-02-21T13:13:57;12.40;99.90
13980;DHT22;73871;49.900;8.594;2024-02-21T13:16:24;12.40;99.90
13980;DHT22;73871;49.900;8.594;2024-02-21T13:18:52;12.30;99.90
13980;DHT22;73871;49.900;8.594;2024-02-21T13:21:19;12.30;99.90
13980;DHT22;73871;49.900;8.594;2024-02-21T13:23:46;12.10;99.90
13980;DHT22;73871;49.900;8.594;2024-02-21T13:26:13;12.00;99.90
13980;DHT22;73871;49.900;8.594;2024-02-21T13:28:40;12.00;99.90
13980;DHT22;73871;49.900;8.594;2024-02-21T13:31:07;12.00;99.90
13980;DHT22;73871;49.900;8.594;2024-02-21T13:33:34;12.00;99.90
13980;DHT22;73871;49.900;8.594;2024-02-21T13:36:03;11.90;99.90
13980;DHT22;73871;49.900;8.594;2024-02-21T13:38:30;11.90;99.90
13980;DHT22;73871;49.900;8.594;2024-02-21T13:40:56;12.00;99.90
13980;DHT22;73871;49.900;8.594;2024-02-21T13:43:23;12.10;99.90
13980;DHT22;73871;49.900;8.594;2024-02-21T13:45:58;12.10;99.90
13980;DHT22;73871;49.900;8.594;2024-02-21T13:48:25;12.10;99.90
13980;DHT22;73871;49.900;8.594;2024-02-21T13:50:52;12.10;99.90
13980;DHT22;73871;49.900;8.594;2024-02-21T13:53:19;12.10;99.90
13980;DHT22;73871;49.900;8.594;2024-02-21T13:55:47;12.20;99.90
13980;DHT22;73871;49.900;8.594;2024-02-21T13:58:14;12.20;99.90
13980;DHT22;73871;49.900;8.594;2024-02-21T14:00:41;12.00;99.90
13980;DHT22;73871;49.900;8.594;2024-02-21T14:03:08;11.90;99.90
13980;DHT22;73871;49.900;8.594;2024-02-21T14:05:36;12.00;99.90
13980;DHT22;73871;49.900;8.594;2024-02-21T14:08:07;12.10;99.90
13980;DHT22;73871;49.900;8.594;2024-02-21T14:10:34;12.20;99.90
13980;DHT22;73871;49.900;8.594;2024-02-21T14:13:01;12.20;99.90
13980;DHT22;73871;49.900;8.594;2024-02-21T14:15:27;12.40;99.90
13980;DHT22;73871;49.900;8.594;2024-02-21T14:17:54;12.40;99.90
13980;DHT22;73871;49.900;8.594;2024-02-21T14:20:22;12.30;99.90
13980;DHT22;73871;49.900;8.594;2024-02-21T14:22:49;12.20;99.90
13980;DHT22;73871;49.900;8.594;2024-02-21T14:25:16;12.30;99.90
13980;DHT22;73871;49.900;8.594;2024-02-21T14:27:43;12.30;99.90
13980;DHT22;73871;49.900;8.594;2024-02-21T14:30:10;12.40;99.90
13980;DHT22;73871;49.900;8.594;2024-02-21T14:32:38;12.30;99.90
13980;DHT22;73871;49.900;8.594;2024-02-21T14:35:05;12.30;99.90
13980;DHT22;73871;49.900;8.594;2024-02-21T14:37:33;12.40;99.90
13980;DHT22;73871;49.900;8.594;2024-02-21T14:39:59;12.30;99.90
13980;DHT22;73871;49.900;8.594;2024-02-21T14:42:27;12.40;99.90
13980;DHT22;73871;49.900;8.594;2024-02-21T14:44:54;12.20;99.90
13980;DHT22;73871;49.900;8.594;2024-02-21T14:47:33;12.30;99.90
13980;DHT22;73871;49.900;8.594;2024-02-21T14:50:01;12.30;99.90
13980;DHT22;73871;49.900;8.594;2024-02-21T14:52:28;12.20;99.90
13980;DHT22;73871;49.900;8.594;2024-02-21T14:54:56;12.20;99.90
13980;DHT22;73871;49.900;8.594;2024-02-21T14:57:22;12.10;99.90
13980;DHT22;73871;49.900;8.594;2024-02-21T14:59:49;12.20;99.90
13980;DHT22;73871;49.900;8.594;2024-02-21T15:02:19;12.10;99.90
13980;DHT22;73871;49.900;8.594;2024-02-21T15:04:46;12.10;99.90
13980;DHT22;73871;49.900;8.594;2024-02-21T15:07:13;12.10;99.90
13980;DHT22;73871;49.900;8.594;2024-02-21T15:09:40;12.00;99.90
13980;DHT22;73871;49.900;8.594;2024-02-21T15:12:07;11.90;99.90
13980;DHT22;73871;49.900;8.594;2024-02-21T15:14:34;11.90;99.90
13980;DHT22;73871;49.900;8.594;2024-02-21T15:17:01;11.80;99.90
13980;DHT22;73871;49.900;8.594;2024-02-21T15:19:27;11.80;99.90
13980;DHT22;73871;49.900;8.594;2024-02-21T15:21:54;11.70;99.90
13980;DHT22;73871;49.900;8.594;2024-02-21T15:24:21;11.70;99.90
13980;DHT22;73871;49.900;8.594;2024-02-21T15:26:49;11.70;99.90
13980;DHT22;73871;49.900;8.594;2024-02-21T15:29:15;11.70;99.90
13980;DHT22;73871;49.900;8.594;2024-02-21T15:31:42;11.60;99.90
13980;DHT22;73871;49.900;8.594;2024-02-21T15:34:13;11.60;99.90
13980;DHT22;73871;49.900;8.594;2024-02-21T15:36:42;11.60;99.90
13980;DHT22;73871;49.900;8.594;2024-02-21T15:39:09;11.50;99.90
13980;DHT22;73871;49.900;8.594;2024-02-21T15:41:37;11.50;99.90
13980;DHT22;73871;49.900;8.594;2024-02-21T15:44:04;11.40;99.90
13980;DHT22;73871;49.900;8.594;2024-02-21T15:46:31;11.40;99.90